Flight Track Log - Related Links

Times and Time Zones

All times are in EDT time to prevent confusion due to time zone crossing. See the CTL61 flight status page for this flight to view local times or setup timezone preferences in your user account.

Time Position Orientation Groundspeed Altitude Reporting Facility
EDT Latitude Longitude Course Direction KTS MPH feet Rate Location/Type
Fri 12:00:10 AM 38.4367 -81.6736 326° Northwest 108 124 4,800  Level Indianapolis Center
Fri 12:01:11 AM 38.4622 -81.6944 327° Northwest 109 125 5,700 639 Climbing Indianapolis Center
Fri 12:02:12 AM 38.4903 -81.7183 326° Northwest 116 133 6,100 148 Climbing Indianapolis Center
Fri 12:03:00 AM 38.5821 -81.7668 327° Northwest  Level FlightAware Approximate
Fri 12:03:13 AM 38.5253 -81.7478 327° Northwest 143 165 6,000  Level Indianapolis Center
Fri 12:04:00 AM 38.6182 -81.7973 327° Northwest  Level FlightAware Approximate
Fri 12:04:14 AM 38.5619 -81.7775 328° Northwest 152 175 6,100  Level Indianapolis Center
Fri 12:05:14 AM 38.5964 -81.8092 324° Northwest 152 175 6,000 -50 Descending Indianapolis Center
Fri 12:06:15 AM 38.6319 -81.8397 326° Northwest 152 175 6,000  Level Indianapolis Center
Fri 12:07:16 AM 38.6672 -81.8714 325° Northwest 153 176 6,000  Level Indianapolis Center
Fri 12:08:17 AM 38.7042 -81.9014 328° Northwest 157 181 6,000  Level Indianapolis Center
Fri 12:09:18 AM 38.7417 -81.9317 328° Northwest 158 182 6,000  Level Indianapolis Center
Fri 12:10:19 AM 38.7794 -81.9639 326° Northwest 161 185 6,000 -49 Level Indianapolis Center
Fri 12:11:20 AM 38.8264 -82.0017 328° Northwest 164 189 5,900  Descending Indianapolis Center
Fri 12:12:20 AM 38.8656 -82.0319 329° Northwest 164 189 6,000 50 Climbing Indianapolis Center
Fri 12:13:21 AM 38.9039 -82.0647 326° Northwest 164 189 6,000  Level Indianapolis Center
Fri 12:14:22 AM 38.9419 -82.0967 327° Northwest 163 188 6,000  Level Indianapolis Center
Fri 12:15:23 AM 38.9806 -82.1297 326° Northwest 167 192 6,000  Level Indianapolis Center
Fri 12:16:23 AM 39.0189 -82.1617 327° Northwest 164 189 6,000 -50 Level Indianapolis Center
Fri 12:17:24 AM 39.0569 -82.1950 326° Northwest 164 189 5,900 -49 Descending Indianapolis Center
Fri 12:18:25 AM 39.0950 -82.2286 326° Northwest 165 190 5,900 49 Level Indianapolis Center
Fri 12:19:26 AM 39.1331 -82.2600 327° Northwest 162 186 6,000 50 Climbing Indianapolis Center
Fri 12:20:26 AM 39.1722 -82.2922 327° Northwest 166 191 6,000  Level Indianapolis Center
Fri 12:21:27 AM 39.2111 -82.3239 328° Northwest 165 190 6,000  Level Indianapolis Center
Fri 12:22:28 AM 39.2497 -82.3572 326° Northwest 166 191 6,000  Level Indianapolis Center
Fri 12:23:29 AM 39.2886 -82.3897 327° Northwest 166 191 6,000 -50 Level Indianapolis Center
Fri 12:24:29 AM 39.3258 -82.4239 325° Northwest 165 190 5,900  Descending Indianapolis Center
Fri 12:25:30 AM 39.3650 -82.4572 327° Northwest 167 192 6,000 49 Climbing Indianapolis Center
Fri 12:26:31 AM 39.4094 -82.4947 327° Northwest 169 194 6,000  Level Indianapolis Center
Fri 12:26:50 AM 39.4225 -82.5047 329° Northwest 169 194 6,000  Level Indianapolis Center
Fri 12:27:27 AM 39.4464 -82.5233 329° Northwest 169 194 6,000  Level Indianapolis Center
Fri 12:28:27 AM 39.4836 -82.5597 323° Northwest 167 192 6,000 -50 Level Indianapolis Center
Fri 12:29:28 AM 39.5236 -82.5911 329° Northwest 165 190 5,900 -50 Descending Indianapolis Center
Fri 12:30:28 AM 39.5611 -82.6222 327° Northwest 164 189 5,900 50 Level Indianapolis Center
Fri 12:31:29 AM 39.5989 -82.6561 325° Northwest 163 188 6,000 49 Climbing Indianapolis Center
Fri 12:32:30 AM 39.6383 -82.6931 324° Northwest 162 186 6,000  Level Indianapolis Center
Fri 12:33:30 AM 39.6739 -82.7239 326° Northwest 162 186 6,000  Level Indianapolis Center
Fri 12:34:31 AM 39.7114 -82.7578 325° Northwest 160 184 6,000  Level Indianapolis Center
Fri 12:35:37 AM 39.7508 -82.7922 326° Northwest 159 183 6,000 -143 Level Indianapolis Center
Fri 12:36:37 AM 39.7894 -82.8258 326° Northwest 162 186 5,700 -414 Descending Indianapolis Center
Fri 12:37:33 AM 39.8261 -82.8575 326° Northwest 173 199 5,200 -545 Descending Indianapolis Center
Fri 12:38:38 AM 39.8708 -82.8958 327° Northwest 174 200 4,600 -571 Descending Indianapolis Center
Fri 12:39:39 AM 39.9114 -82.9314 326° Northwest 175 201 4,000 -595 Descending Indianapolis Center
Fri 12:40:39 AM 39.9508 -82.9636 328° Northwest 171 197 3,400 -600 Descending Indianapolis Center

Login

Don't have an account? Register now (free) for customized features, flight alerts, and more!